createdAt,value
2018-07-27T00:01:45.567Z,54.10
2018-07-27T00:04:14.115Z,54.40
2018-07-27T00:06:42.850Z,54.40
2018-07-27T00:09:13.016Z,54.40
2018-07-27T00:11:43.038Z,54.70
2018-07-27T00:14:11.913Z,54.70
2018-07-27T00:16:41.098Z,54.90
2018-07-27T00:19:09.765Z,55.00
2018-07-27T00:21:38.661Z,55.10
2018-07-27T00:24:07.315Z,55.10
2018-07-27T00:26:35.962Z,55.20
2018-07-27T00:29:04.588Z,55.60
2018-07-27T00:31:33.366Z,55.70
2018-07-27T00:34:01.898Z,55.80
2018-07-27T00:36:30.426Z,55.60
2018-07-27T00:38:58.993Z,55.60
2018-07-27T00:41:28.154Z,55.40
2018-07-27T00:43:56.631Z,55.30
2018-07-27T00:46:25.202Z,55.30
2018-07-27T00:48:53.696Z,55.40
2018-07-27T00:51:22.381Z,55.40
2018-07-27T00:53:51.056Z,55.40
2018-07-27T00:56:19.713Z,55.40
2018-07-27T00:58:48.716Z,55.50
2018-07-27T01:01:17.392Z,55.70
2018-07-27T01:03:46.016Z,55.80
2018-07-27T01:06:14.623Z,55.90
2018-07-27T01:08:43.457Z,55.90
2018-07-27T01:11:12.492Z,56.10
2018-07-27T01:13:41.132Z,56.10
2018-07-27T01:16:10.548Z,56.10
2018-07-27T01:18:39.188Z,56.10
2018-07-27T01:21:08.419Z,56.10
2018-07-27T01:23:37.110Z,56.00
2018-07-27T01:26:06.159Z,56.30
2018-07-27T01:28:35.258Z,56.30
2018-07-27T01:31:04.023Z,55.90
2018-07-27T01:33:33.190Z,55.70
2018-07-27T01:36:01.778Z,55.80
2018-07-27T01:38:30.504Z,56.10
2018-07-27T01:40:59.164Z,56.30
2018-07-27T01:43:27.830Z,56.60
2018-07-27T01:45:56.881Z,56.50
2018-07-27T01:48:25.521Z,56.30
2018-07-27T01:50:54.494Z,56.20
2018-07-27T01:56:00.219Z,56.10
2018-07-27T01:58:29.007Z,56.10
2018-07-27T02:00:57.702Z,56.40
2018-07-27T02:03:27.737Z,56.50
2018-07-27T02:05:57.293Z,56.60
2018-07-27T02:08:25.948Z,56.90
2018-07-27T02:10:54.635Z,56.70
2018-07-27T02:13:23.781Z,56.60
2018-07-27T02:15:52.623Z,56.40
2018-07-27T02:18:22.008Z,55.80
2018-07-27T02:20:50.675Z,55.60
2018-07-27T02:25:47.440Z,56.00
2018-07-27T02:30:44.863Z,56.30
2018-07-27T02:33:13.412Z,56.30
2018-07-27T02:35:42.076Z,56.10
2018-07-27T02:38:10.764Z,55.80
2018-07-27T02:40:39.361Z,55.60
2018-07-27T02:43:08.136Z,55.70
2018-07-27T02:45:37.269Z,55.80
2018-07-27T02:48:06.228Z,55.80
2018-07-27T02:53:03.166Z,56.60
2018-07-27T02:55:31.811Z,57.10
2018-07-27T02:58:00.432Z,57.20
2018-07-27T03:00:29.254Z,57.30
2018-07-27T03:02:57.839Z,57.40
2018-07-27T03:05:26.581Z,57.30
2018-07-27T03:07:55.216Z,57.30
2018-07-27T03:10:23.813Z,57.30
2018-07-27T03:12:53.129Z,57.30
2018-07-27T03:15:22.236Z,57.40
2018-07-27T03:17:51.178Z,57.40
2018-07-27T03:20:19.733Z,57.70
2018-07-27T03:22:49.096Z,58.00
2018-07-27T03:25:17.871Z,58.00
2018-07-27T03:27:46.833Z,58.10
2018-07-27T03:30:16.354Z,58.20
2018-07-27T03:35:13.264Z,58.40
2018-07-27T03:37:41.847Z,57.90
2018-07-27T03:40:10.399Z,57.60
2018-07-27T03:42:38.997Z,57.80
2018-07-27T03:45:07.953Z,57.90
2018-07-27T03:47:36.538Z,57.90
2018-07-27T03:50:05.692Z,58.20
2018-07-27T03:52:34.323Z,58.50
2018-07-27T03:55:02.872Z,58.60
2018-07-27T03:57:31.958Z,58.60
2018-07-27T04:00:01.337Z,58.30
2018-07-27T04:02:30.113Z,58.20
2018-07-27T04:04:59.403Z,58.10
2018-07-27T04:07:28.047Z,57.70
2018-07-27T04:09:56.593Z,57.80
2018-07-27T04:12:27.252Z,57.60
2018-07-27T04:14:56.480Z,57.70
2018-07-27T04:17:25.723Z,57.70
2018-07-27T04:19:54.376Z,58.00
2018-07-27T04:24:52.619Z,57.90
2018-07-27T04:27:21.540Z,58.10
2018-07-27T04:29:50.098Z,58.10
2018-07-27T04:32:18.659Z,58.00
2018-07-27T04:34:47.671Z,58.10
2018-07-27T04:37:16.397Z,58.50
2018-07-27T04:39:45.044Z,58.50
2018-07-27T04:42:14.483Z,58.70
2018-07-27T04:44:43.115Z,58.80
2018-07-27T04:47:12.176Z,58.80
2018-07-27T04:49:41.227Z,58.90
2018-07-27T04:52:10.636Z,59.00
2018-07-27T04:54:39.160Z,59.10
2018-07-27T04:57:08.149Z,59.20
2018-07-27T04:59:51.301Z,59.10
2018-07-27T05:02:20.507Z,58.80
2018-07-27T05:04:49.194Z,58.90
2018-07-27T05:07:18.266Z,58.60
2018-07-27T05:09:46.846Z,58.60
2018-07-27T05:12:15.879Z,58.50
2018-07-27T05:14:44.656Z,58.40
2018-07-27T05:17:13.340Z,58.20
2018-07-27T05:19:42.018Z,58.10
2018-07-27T05:22:10.596Z,58.20
2018-07-27T05:24:39.631Z,58.20
2018-07-27T05:27:08.770Z,58.00
2018-07-27T05:29:37.753Z,57.90
2018-07-27T05:32:07.893Z,57.80
2018-07-27T05:34:36.499Z,57.70
2018-07-27T05:37:07.089Z,57.60
2018-07-27T05:39:35.613Z,57.40
2018-07-27T05:42:05.231Z,57.30
2018-07-27T05:44:33.751Z,57.40
2018-07-27T05:47:03.066Z,57.30
2018-07-27T05:49:32.274Z,57.00
2018-07-27T05:52:00.884Z,56.80
2018-07-27T05:54:29.858Z,56.70
2018-07-27T05:56:58.697Z,56.50
2018-07-27T05:59:27.745Z,56.40
2018-07-27T06:01:56.402Z,56.10
2018-07-27T06:04:25.180Z,56.00
2018-07-27T06:06:53.831Z,56.00
2018-07-27T06:09:25.253Z,56.00
2018-07-27T06:11:54.344Z,55.80
2018-07-27T06:14:23.401Z,55.80
2018-07-27T06:16:52.768Z,56.00
2018-07-27T06:19:22.074Z,55.90
2018-07-27T06:21:51.233Z,55.90
2018-07-27T06:24:19.940Z,55.70
2018-07-27T06:26:49.360Z,55.50
2018-07-27T06:29:20.393Z,55.50
2018-07-27T06:31:50.217Z,55.40
2018-07-27T06:34:19.511Z,55.10
2018-07-27T06:36:53.630Z,55.10
2018-07-27T06:39:23.052Z,55.50
2018-07-27T06:41:52.026Z,54.90
2018-07-27T06:44:21.245Z,54.80
2018-07-27T06:46:50.626Z,54.70
2018-07-27T06:49:20.012Z,54.60
2018-07-27T06:51:49.071Z,54.50
2018-07-27T06:56:48.341Z,54.10
2018-07-27T06:59:17.521Z,54.00
2018-07-27T07:01:46.940Z,53.60
2018-07-27T07:04:15.934Z,53.00
2018-07-27T07:06:45.631Z,52.60
2018-07-27T07:09:15.813Z,52.00
2018-07-27T07:11:44.403Z,51.50
2018-07-27T07:14:14.551Z,51.10
2018-07-27T07:16:43.865Z,50.60
2018-07-27T07:19:13.890Z,50.50
2018-07-27T07:21:43.714Z,50.10
2018-07-27T07:24:12.701Z,49.80
2018-07-27T07:26:42.120Z,49.70
2018-07-27T07:29:11.413Z,49.40
2018-07-27T07:31:41.895Z,49.10
2018-07-27T07:34:11.375Z,48.90
2018-07-27T07:36:40.367Z,48.70
2018-07-27T07:39:13.020Z,48.60
2018-07-27T07:41:42.848Z,48.30
2018-07-27T07:44:12.152Z,48.20
2018-07-27T07:46:41.365Z,48.00
2018-07-27T07:49:11.223Z,47.80
2018-07-27T07:51:40.653Z,48.30
2018-07-27T07:54:10.658Z,47.70
2018-07-27T07:56:40.071Z,48.10
2018-07-27T07:59:10.600Z,47.70
2018-07-27T08:01:40.615Z,47.70
2018-07-27T08:04:11.184Z,47.70
2018-07-27T08:06:41.699Z,47.60
2018-07-27T08:09:12.477Z,47.50
2018-07-27T08:14:11.323Z,47.40
2018-07-27T08:16:40.883Z,47.30
2018-07-27T08:19:10.661Z,47.20
2018-07-27T08:21:39.548Z,47.20
2018-07-27T08:24:08.344Z,47.10
2018-07-27T08:27:13.477Z,47.10
2018-07-27T08:29:43.821Z,47.10
2018-07-27T08:32:13.089Z,46.80
2018-07-27T08:34:42.831Z,46.60
2018-07-27T08:37:12.406Z,46.50
2018-07-27T08:39:42.698Z,46.20
2018-07-27T08:42:11.526Z,46.00
2018-07-27T08:44:41.544Z,45.80
2018-07-27T08:47:10.411Z,45.30
2018-07-27T08:49:39.967Z,45.10
2018-07-27T08:52:09.253Z,44.80
2018-07-27T08:54:38.416Z,44.60
2018-07-27T08:57:07.172Z,45.00
2018-07-27T08:59:36.002Z,44.80
2018-07-27T09:02:05.159Z,44.70
2018-07-27T09:04:34.596Z,44.80
2018-07-27T09:07:04.067Z,44.50
2018-07-27T09:09:33.367Z,44.50
2018-07-27T09:12:02.112Z,44.70
2018-07-27T09:14:32.130Z,44.70
2018-07-27T09:17:01.262Z,43.50
2018-07-27T09:19:30.731Z,43.70
2018-07-27T09:22:00.996Z,44.50
2018-07-27T09:24:30.287Z,44.20
2018-07-27T09:26:58.955Z,44.30
2018-07-27T09:29:27.909Z,44.20
2018-07-27T09:31:56.859Z,44.10
2018-07-27T09:34:25.818Z,43.60
2018-07-27T09:36:54.757Z,43.60
2018-07-27T09:39:23.445Z,43.80
2018-07-27T09:41:52.234Z,43.90
2018-07-27T09:44:20.988Z,43.60
2018-07-27T09:46:50.201Z,43.60
2018-07-27T09:49:19.498Z,43.50
2018-07-27T09:51:48.321Z,43.50
2018-07-27T09:54:17.283Z,43.90
2018-07-27T09:56:46.828Z,43.50
2018-07-27T09:59:15.462Z,44.10
2018-07-27T10:01:44.200Z,44.00
2018-07-27T10:04:13.074Z,43.80
2018-07-27T10:06:41.911Z,43.70
2018-07-27T10:09:10.681Z,43.80
2018-07-27T10:11:39.378Z,43.20
2018-07-27T10:14:08.681Z,43.90
2018-07-27T10:16:37.684Z,44.00
2018-07-27T10:19:07.153Z,43.90
2018-07-27T10:21:37.019Z,43.70
2018-07-27T10:24:05.933Z,45.30
2018-07-27T10:26:34.832Z,43.90
2018-07-27T10:29:03.973Z,43.70
2018-07-27T10:31:33.493Z,43.10
2018-07-27T10:34:02.651Z,42.70
2018-07-27T10:36:31.671Z,43.00
2018-07-27T10:39:00.873Z,42.90
2018-07-27T10:41:29.701Z,43.70
2018-07-27T10:43:58.682Z,43.20
2018-07-27T10:46:28.053Z,43.10
2018-07-27T10:48:57.821Z,43.30
2018-07-27T10:51:26.888Z,43.20
2018-07-27T10:53:55.564Z,43.30
2018-07-27T10:56:25.086Z,43.70
2018-07-27T10:58:55.033Z,44.10
2018-07-27T11:01:23.930Z,43.90
2018-07-27T11:03:53.914Z,43.80
2018-07-27T11:06:22.623Z,43.90
2018-07-27T11:08:51.717Z,43.70
2018-07-27T11:11:21.250Z,43.80
2018-07-27T11:13:49.884Z,43.50
2018-07-27T11:16:19.213Z,43.10
2018-07-27T11:18:48.850Z,43.30
2018-07-27T11:21:17.763Z,43.00
2018-07-27T11:23:46.513Z,42.90
2018-07-27T11:26:15.152Z,42.70
2018-07-27T11:28:44.131Z,43.00
2018-07-27T11:31:12.852Z,42.30
2018-07-27T11:33:42.240Z,42.90
2018-07-27T11:36:11.017Z,42.60
2018-07-27T11:38:41.364Z,42.70
2018-07-27T11:41:10.322Z,42.60
2018-07-27T11:43:39.351Z,42.80
2018-07-27T11:46:08.144Z,42.90
2018-07-27T11:48:37.519Z,43.10
2018-07-27T11:51:07.094Z,43.00
2018-07-27T11:53:35.887Z,42.90
2018-07-27T11:56:05.044Z,42.90
2018-07-27T11:58:33.805Z,42.70
2018-07-27T12:01:02.676Z,43.40
2018-07-27T12:03:31.260Z,42.80
2018-07-27T12:06:00.036Z,42.90
2018-07-27T12:08:29.760Z,42.10
2018-07-27T12:10:58.513Z,42.20
2018-07-27T12:13:27.464Z,42.40
2018-07-27T12:15:57.897Z,42.40
2018-07-27T12:18:26.522Z,42.20
2018-07-27T12:20:55.402Z,41.80
2018-07-27T12:23:23.974Z,41.90
2018-07-27T12:25:52.782Z,42.00
2018-07-27T12:28:21.776Z,42.30
2018-07-27T12:30:51.116Z,42.50
2018-07-27T12:33:20.562Z,42.50
2018-07-27T12:35:49.360Z,42.50
2018-07-27T12:38:18.311Z,42.80
2018-07-27T12:40:47.179Z,43.00
2018-07-27T12:43:16.415Z,42.70
2018-07-27T12:48:13.559Z,42.50
2018-07-27T12:50:42.617Z,42.30
2018-07-27T12:53:11.480Z,41.80
2018-07-27T12:58:09.532Z,41.80
2018-07-27T13:00:38.674Z,42.40
2018-07-27T13:03:07.328Z,42.40
2018-07-27T13:05:36.323Z,42.20
2018-07-27T13:08:04.953Z,41.90
2018-07-27T13:10:34.209Z,42.10
2018-07-27T13:13:03.711Z,42.40
2018-07-27T13:18:00.777Z,42.00
2018-07-27T13:23:19.461Z,42.10
2018-07-27T13:28:49.338Z,41.70
2018-07-27T13:31:18.890Z,42.30
2018-07-27T13:34:01.571Z,41.60
2018-07-27T13:36:30.892Z,41.50
2018-07-27T13:38:59.708Z,42.20
2018-07-27T13:43:56.938Z,42.30
2018-07-27T13:46:26.033Z,41.90
2018-07-27T13:48:56.131Z,41.70
2018-07-27T13:51:26.986Z,41.70
2018-07-27T13:53:55.862Z,42.10
2018-07-27T13:56:24.868Z,41.90
2018-07-27T13:58:54.700Z,42.50
2018-07-27T14:01:23.968Z,42.60
2018-07-27T14:03:53.323Z,42.40
2018-07-27T14:06:23.002Z,42.20
2018-07-27T14:08:52.213Z,41.70
2018-07-27T14:11:21.744Z,42.40
2018-07-27T14:13:51.804Z,42.00
2018-07-27T14:16:21.598Z,42.40
2018-07-27T14:18:51.053Z,41.60
2018-07-27T14:21:20.469Z,42.20
2018-07-27T14:23:49.573Z,41.30
2018-07-27T14:26:18.296Z,41.50
2018-07-27T14:28:47.554Z,41.10
2018-07-27T14:31:17.204Z,40.10
2018-07-27T14:33:47.139Z,40.40
2018-07-27T14:36:16.050Z,40.00
2018-07-27T14:38:45.172Z,40.30
2018-07-27T14:41:14.648Z,40.60
2018-07-27T14:43:43.637Z,41.00
2018-07-27T14:46:12.821Z,40.90
2018-07-27T14:48:41.791Z,40.80
2018-07-27T14:51:11.216Z,41.00
2018-07-27T14:53:39.879Z,40.40
2018-07-27T14:56:08.976Z,40.20
2018-07-27T15:01:06.273Z,40.60
2018-07-27T15:03:35.112Z,40.80
2018-07-27T15:06:04.015Z,40.80
2018-07-27T15:08:33.067Z,40.90
2018-07-27T15:11:02.866Z,42.00
2018-07-27T15:13:31.827Z,41.00
2018-07-27T15:16:00.421Z,41.40
2018-07-27T15:18:29.128Z,41.60
2018-07-27T15:20:58.609Z,41.20
2018-07-27T15:23:27.964Z,41.60
2018-07-27T15:25:58.754Z,41.00
2018-07-27T15:28:28.056Z,40.80
2018-07-27T15:30:57.258Z,41.10
2018-07-27T15:33:26.038Z,40.60
2018-07-27T15:35:55.033Z,41.50
2018-07-27T15:38:24.067Z,41.40
2018-07-27T15:40:52.708Z,41.30
2018-07-27T15:43:21.523Z,41.00
2018-07-27T15:45:50.488Z,40.70
2018-07-27T15:48:19.488Z,41.10
2018-07-27T15:50:48.184Z,40.70
2018-07-27T15:53:17.176Z,41.60
2018-07-27T15:55:45.845Z,41.80
2018-07-27T15:58:15.351Z,41.10
2018-07-27T16:00:44.799Z,41.50
2018-07-27T16:03:13.591Z,41.60
2018-07-27T16:05:42.171Z,41.80
2018-07-27T16:08:11.440Z,42.20
2018-07-27T16:10:42.189Z,41.90
2018-07-27T16:13:10.910Z,42.30
2018-07-27T16:15:39.942Z,42.30
2018-07-27T16:18:09.928Z,42.50
2018-07-27T16:20:39.225Z,43.10
2018-07-27T16:23:08.665Z,42.90
2018-07-27T16:25:37.299Z,43.20
2018-07-27T16:28:05.919Z,42.00
2018-07-27T16:30:34.994Z,42.70
2018-07-27T16:35:32.472Z,42.10
2018-07-27T16:38:02.085Z,42.30
2018-07-27T16:40:30.951Z,42.70
2018-07-27T16:43:00.261Z,43.00
2018-07-27T16:45:28.851Z,42.90
2018-07-27T16:47:57.491Z,43.00
2018-07-27T16:50:28.707Z,43.30
2018-07-27T16:52:58.814Z,43.30
2018-07-27T16:55:27.447Z,43.00
2018-07-27T16:57:56.746Z,43.40
2018-07-27T17:00:25.399Z,43.80
2018-07-27T17:02:54.640Z,44.10
2018-07-27T17:05:24.032Z,44.20
2018-07-27T17:07:53.327Z,44.40
2018-07-27T17:10:22.896Z,44.50
2018-07-27T17:15:20.166Z,45.20
2018-07-27T17:17:49.075Z,45.40
2018-07-27T17:20:17.843Z,45.50
2018-07-27T17:22:46.582Z,45.40
2018-07-27T17:25:15.619Z,45.60
2018-07-27T17:27:44.708Z,45.80
2018-07-27T17:30:14.491Z,45.90
2018-07-27T17:32:43.700Z,46.20
2018-07-27T17:35:12.998Z,46.00
2018-07-27T17:37:42.738Z,46.20
2018-07-27T17:40:11.411Z,46.30
2018-07-27T17:42:40.451Z,46.50
2018-07-27T17:45:09.568Z,46.70
2018-07-27T17:47:38.921Z,46.80
2018-07-27T17:50:07.793Z,47.60
2018-07-27T17:52:36.425Z,47.30
2018-07-27T17:55:05.629Z,47.50
2018-07-27T17:57:35.244Z,47.70
2018-07-27T18:00:04.389Z,47.80
2018-07-27T18:02:33.012Z,48.00
2018-07-27T18:05:02.977Z,47.90
2018-07-27T18:07:31.659Z,48.10
2018-07-27T18:10:00.477Z,48.10
2018-07-27T18:12:29.323Z,48.20
2018-07-27T18:14:57.980Z,48.30
2018-07-27T18:17:26.568Z,48.40
2018-07-27T18:19:55.666Z,48.50
2018-07-27T18:22:24.940Z,48.50
2018-07-27T18:24:53.857Z,48.50
2018-07-27T18:27:22.616Z,48.60
2018-07-27T18:29:51.564Z,48.70
2018-07-27T18:32:20.364Z,48.80
2018-07-27T18:34:49.475Z,48.70
2018-07-27T18:37:19.094Z,48.70
2018-07-27T18:39:48.652Z,48.80
2018-07-27T18:42:19.293Z,48.80
2018-07-27T18:44:49.067Z,48.90
2018-07-27T18:47:18.887Z,48.70
2018-07-27T18:49:47.979Z,48.80
2018-07-27T18:52:17.175Z,49.00
2018-07-27T18:54:45.776Z,49.00
2018-07-27T18:57:14.783Z,49.00
2018-07-27T18:59:45.530Z,48.90
2018-07-27T19:02:15.616Z,48.90
2018-07-27T19:04:44.180Z,49.20
2018-07-27T19:07:13.522Z,49.20
2018-07-27T19:09:43.028Z,49.40
2018-07-27T19:12:13.393Z,49.50
2018-07-27T19:14:46.121Z,49.40
2018-07-27T19:17:15.368Z,49.50
2018-07-27T19:19:44.774Z,49.50
2018-07-27T19:22:13.917Z,49.40
2018-07-27T19:24:43.014Z,49.50
2018-07-27T19:27:12.795Z,49.60
2018-07-27T19:29:42.354Z,49.80
2018-07-27T19:32:11.731Z,50.10
2018-07-27T19:34:40.750Z,50.20
2018-07-27T19:37:11.035Z,50.30
2018-07-27T19:39:39.967Z,50.40
2018-07-27T19:42:08.813Z,50.50
2018-07-27T19:44:37.384Z,50.70
2018-07-27T19:47:06.258Z,50.90
2018-07-27T19:49:35.664Z,51.50
2018-07-27T19:52:04.409Z,51.00
2018-07-27T19:54:33.159Z,51.10
2018-07-27T19:57:01.958Z,51.20
2018-07-27T19:59:31.248Z,51.30
2018-07-27T20:02:00.072Z,51.20
2018-07-27T20:04:29.115Z,51.20
2018-07-27T20:06:59.048Z,51.40
2018-07-27T20:09:27.982Z,51.50
2018-07-27T20:11:56.871Z,51.50
2018-07-27T20:14:26.665Z,51.70
2018-07-27T20:16:56.167Z,51.90
2018-07-27T20:19:24.940Z,52.10
2018-07-27T20:21:53.846Z,52.10
2018-07-27T20:24:22.858Z,52.30
2018-07-27T20:26:51.529Z,52.40
2018-07-27T20:29:20.320Z,52.50
2018-07-27T20:31:49.056Z,52.50
2018-07-27T20:34:17.791Z,52.50
2018-07-27T20:36:46.940Z,52.60
2018-07-27T20:39:15.579Z,52.80
2018-07-27T20:41:44.876Z,52.80
2018-07-27T20:44:13.689Z,52.80
2018-07-27T20:46:42.783Z,52.90
2018-07-27T20:49:11.702Z,52.90
2018-07-27T20:51:41.336Z,52.80
2018-07-27T20:54:11.339Z,52.80
2018-07-27T20:56:40.982Z,52.80
2018-07-27T20:59:09.788Z,52.90
2018-07-27T21:01:38.723Z,53.00
2018-07-27T21:04:07.352Z,53.00
2018-07-27T21:06:36.241Z,53.20
2018-07-27T21:09:07.515Z,53.20
2018-07-27T21:11:36.533Z,53.20
2018-07-27T21:14:05.561Z,53.40
2018-07-27T21:16:34.520Z,53.50
2018-07-27T21:19:03.085Z,53.50
2018-07-27T21:21:32.666Z,53.50
2018-07-27T21:24:01.189Z,53.60
2018-07-27T21:26:30.386Z,53.70
2018-07-27T21:28:59.439Z,53.80
2018-07-27T21:31:29.455Z,53.80
2018-07-27T21:33:58.259Z,53.90
2018-07-27T21:36:27.315Z,54.00
2018-07-27T21:38:56.432Z,54.00
2018-07-27T21:41:25.123Z,54.10
2018-07-27T21:43:54.053Z,54.10
2018-07-27T21:46:22.964Z,54.10
2018-07-27T21:48:52.672Z,54.20
2018-07-27T21:51:21.456Z,54.20
2018-07-27T21:53:50.302Z,54.30
2018-07-27T21:56:19.099Z,54.40
2018-07-27T21:58:48.034Z,54.30
2018-07-27T22:01:16.811Z,54.50
2018-07-27T22:03:45.501Z,54.60
2018-07-27T22:06:14.052Z,54.60
2018-07-27T22:08:42.700Z,54.50
2018-07-27T22:11:11.406Z,54.70
2018-07-27T22:13:40.130Z,54.80
2018-07-27T22:16:08.919Z,54.80
2018-07-27T22:18:37.611Z,54.90
2018-07-27T22:21:06.191Z,55.00
2018-07-27T22:23:35.212Z,54.80
2018-07-27T22:26:03.920Z,54.90
2018-07-27T22:28:32.953Z,54.90
2018-07-27T22:31:01.531Z,55.50
2018-07-27T22:33:30.120Z,55.20
2018-07-27T22:35:58.811Z,55.20
2018-07-27T22:38:27.402Z,55.10
2018-07-27T22:40:55.997Z,55.20
2018-07-27T22:43:24.559Z,55.10
2018-07-27T22:45:53.205Z,55.10
2018-07-27T22:48:21.850Z,55.10
2018-07-27T22:50:50.430Z,55.10
2018-07-27T22:53:19.014Z,55.20
2018-07-27T22:55:47.548Z,55.30
2018-07-27T23:00:44.514Z,55.80
2018-07-27T23:03:13.402Z,56.00
2018-07-27T23:05:44.371Z,56.70
2018-07-27T23:08:12.952Z,56.10
2018-07-27T23:10:42.806Z,56.00
2018-07-27T23:13:12.133Z,56.00
2018-07-27T23:15:41.497Z,55.90
2018-07-27T23:18:10.257Z,56.00
2018-07-27T23:20:38.972Z,56.00
2018-07-27T23:23:07.609Z,56.10
2018-07-27T23:25:36.670Z,56.40
2018-07-27T23:28:05.999Z,56.50
2018-07-27T23:30:35.249Z,56.60
2018-07-27T23:33:04.135Z,56.50
2018-07-27T23:35:32.801Z,56.40
2018-07-27T23:38:01.428Z,56.50
2018-07-27T23:40:30.024Z,56.60
2018-07-27T23:42:58.536Z,56.50
2018-07-27T23:45:27.069Z,56.40
2018-07-27T23:47:55.630Z,56.10
2018-07-27T23:50:24.252Z,56.10
2018-07-27T23:52:54.823Z,56.30
2018-07-27T23:55:24.160Z,56.40
2018-07-27T23:57:53.096Z,56.50
